createdAt,value
2022-10-14T00:02:16.300Z,11.74
2022-10-14T00:04:42.993Z,11.63
2022-10-14T00:07:09.652Z,11.66
2022-10-14T00:09:36.266Z,11.68
2022-10-14T00:12:03.296Z,11.47
2022-10-14T00:14:30.024Z,11.32
2022-10-14T00:16:56.696Z,11.37
2022-10-14T00:19:23.267Z,11.65
2022-10-14T00:21:49.848Z,11.53
2022-10-14T00:24:17.421Z,11.57
2022-10-14T00:26:44.069Z,11.60
2022-10-14T00:29:17.238Z,11.27
2022-10-14T00:31:43.869Z,11.48
2022-10-14T00:34:13.114Z,11.53
2022-10-14T00:36:40.688Z,11.48
2022-10-14T00:39:07.726Z,11.43
2022-10-14T00:41:35.841Z,11.39
2022-10-14T00:44:11.607Z,11.46
2022-10-14T00:46:49.136Z,11.42
2022-10-14T00:49:20.139Z,11.41
2022-10-14T00:52:04.298Z,11.56
2022-10-14T00:54:45.264Z,11.51
2022-10-14T00:57:12.191Z,11.16
2022-10-14T00:59:39.172Z,11.43
2022-10-14T01:02:05.825Z,10.91
2022-10-14T01:04:33.436Z,11.28
2022-10-14T01:07:04.378Z,11.00
2022-10-14T01:09:39.044Z,11.37
2022-10-14T01:15:06.147Z,11.22
2022-10-14T01:18:00.402Z,11.19
2022-10-14T01:21:09.867Z,11.11
2022-10-14T01:23:57.631Z,11.07
2022-10-14T01:26:27.141Z,11.02
2022-10-14T01:29:12.136Z,11.06
2022-10-14T01:31:45.067Z,11.02
2022-10-14T01:34:15.284Z,10.91
2022-10-14T01:36:51.357Z,10.81
2022-10-14T01:39:24.046Z,8.51
2022-10-14T01:42:03.659Z,10.86
2022-10-14T01:44:32.511Z,10.53
2022-10-14T01:47:02.237Z,10.97
2022-10-14T01:49:41.957Z,10.84
2022-10-14T01:52:22.677Z,10.85
2022-10-14T01:54:53.396Z,11.05
2022-10-14T01:57:24.641Z,10.99
2022-10-14T01:59:53.446Z,11.05
2022-10-14T02:02:21.110Z,8.63
2022-10-14T02:04:47.856Z,11.00
2022-10-14T02:07:43.820Z,11.08
2022-10-14T02:10:10.323Z,11.06
2022-10-14T02:12:47.972Z,11.05
2022-10-14T02:15:26.607Z,11.10
2022-10-14T02:18:06.592Z,11.03
2022-10-14T02:21:03.544Z,10.96
2022-10-14T02:23:39.564Z,10.91
2022-10-14T02:26:06.905Z,10.57
2022-10-14T02:28:34.945Z,8.10
2022-10-14T02:31:10.137Z,10.88
2022-10-14T02:33:43.602Z,10.78
2022-10-14T02:36:12.187Z,10.75
2022-10-14T02:38:40.991Z,10.69
2022-10-14T02:41:12.784Z,10.75
2022-10-14T02:43:39.434Z,10.61
2022-10-14T02:46:06.317Z,10.57
2022-10-14T02:48:32.998Z,10.63
2022-10-14T02:50:59.627Z,10.28
2022-10-14T02:53:26.305Z,10.64
2022-10-14T02:55:52.961Z,10.61
2022-10-14T02:58:19.606Z,10.40
2022-10-14T03:00:48.843Z,10.50
2022-10-14T03:03:15.583Z,10.48
2022-10-14T03:05:43.389Z,10.23
2022-10-14T03:08:10.970Z,10.50
2022-10-14T03:10:37.540Z,9.87
2022-10-14T03:13:04.209Z,10.43
2022-10-14T03:15:30.795Z,9.58
2022-10-14T03:17:57.355Z,10.48
2022-10-14T03:20:24.021Z,10.41
2022-10-14T03:22:50.609Z,10.51
2022-10-14T03:25:17.308Z,10.24
2022-10-14T03:27:43.889Z,10.47
2022-10-14T03:30:10.863Z,10.44
2022-10-14T03:32:37.456Z,9.99
2022-10-14T03:35:04.184Z,10.36
2022-10-14T03:37:30.880Z,10.14
2022-10-14T03:39:57.460Z,10.18
2022-10-14T03:42:24.249Z,10.21
2022-10-14T03:44:50.984Z,9.87
2022-10-14T03:47:17.591Z,9.06
2022-10-14T03:49:44.134Z,10.17
2022-10-14T03:52:10.739Z,10.16
2022-10-14T03:54:37.383Z,10.13
2022-10-14T03:57:03.990Z,10.07
2022-10-14T03:59:30.767Z,9.75
2022-10-14T04:01:57.378Z,9.77
2022-10-14T04:04:23.980Z,9.66
2022-10-14T04:06:50.803Z,9.60
2022-10-14T04:09:17.612Z,8.90
2022-10-14T04:11:44.225Z,8.85
2022-10-14T04:14:10.785Z,9.65
2022-10-14T04:16:37.316Z,9.35
2022-10-14T04:19:04.237Z,9.65
2022-10-14T04:21:30.832Z,9.18
2022-10-14T04:23:57.484Z,9.44
2022-10-14T04:26:24.029Z,8.59
2022-10-14T04:28:50.655Z,9.62
2022-10-14T04:31:17.316Z,8.24
2022-10-14T04:33:43.847Z,5.64
2022-10-14T04:36:10.473Z,9.22
2022-10-14T04:38:37.038Z,9.15
2022-10-14T04:41:03.663Z,9.60
2022-10-14T04:43:30.237Z,9.82
2022-10-14T04:45:56.960Z,9.75
2022-10-14T04:48:23.587Z,9.76
2022-10-14T04:50:52.113Z,9.08
2022-10-14T04:53:22.128Z,9.90
2022-10-14T04:55:49.850Z,9.27
2022-10-14T04:58:17.117Z,9.92
2022-10-14T05:00:43.823Z,9.88
2022-10-14T05:03:10.640Z,9.45
2022-10-14T05:05:37.782Z,9.47
2022-10-14T05:08:04.870Z,9.79
2022-10-14T05:10:31.745Z,10.30
2022-10-14T05:12:58.912Z,10.01
2022-10-14T05:15:26.222Z,10.31
2022-10-14T05:17:53.276Z,10.43
2022-10-14T05:20:20.886Z,10.58
2022-10-14T05:22:48.254Z,10.55
2022-10-14T05:25:15.637Z,10.50
2022-10-14T05:27:42.963Z,10.88
2022-10-14T05:30:11.271Z,10.89
2022-10-14T05:32:38.531Z,11.19
2022-10-14T05:35:06.243Z,11.31
2022-10-14T05:37:33.554Z,11.37
2022-10-14T05:40:02.998Z,11.45
2022-10-14T05:42:29.739Z,11.46
2022-10-14T05:44:57.429Z,11.48
2022-10-14T05:47:24.891Z,11.35
2022-10-14T05:49:52.162Z,11.64
2022-10-14T05:52:19.734Z,11.77
2022-10-14T05:54:47.146Z,11.25
2022-10-14T05:57:14.396Z,11.13
2022-10-14T05:59:41.627Z,12.03
2022-10-14T06:02:10.723Z,11.95
2022-10-14T06:04:41.578Z,11.92
2022-10-14T06:07:12.441Z,12.17
2022-10-14T06:09:40.700Z,12.66
2022-10-14T06:12:08.378Z,12.99
2022-10-14T06:14:35.805Z,12.88
2022-10-14T06:17:03.186Z,13.27
2022-10-14T06:19:32.097Z,12.43
2022-10-14T06:22:02.346Z,12.73
2022-10-14T06:24:29.630Z,13.53
2022-10-14T06:26:57.913Z,13.29
2022-10-14T06:29:31.808Z,13.35
2022-10-14T06:31:59.098Z,12.34
2022-10-14T06:34:29.533Z,13.55
2022-10-14T06:37:01.980Z,13.70
2022-10-14T06:39:29.609Z,12.85
2022-10-14T06:41:57.091Z,12.96
2022-10-14T06:44:24.541Z,13.00
2022-10-14T06:46:51.828Z,12.59
2022-10-14T06:49:19.272Z,13.57
2022-10-14T06:51:48.684Z,13.59
2022-10-14T06:54:17.103Z,14.06
2022-10-14T06:56:44.492Z,13.39
2022-10-14T06:59:11.217Z,14.56
2022-10-14T07:01:39.764Z,14.71
2022-10-14T07:04:07.137Z,14.57
2022-10-14T07:06:34.455Z,14.79
2022-10-14T07:09:01.845Z,14.63
2022-10-14T07:11:29.182Z,14.89
2022-10-14T07:13:57.191Z,14.56
2022-10-14T07:16:24.718Z,15.24
2022-10-14T07:18:52.031Z,15.14
2022-10-14T07:21:18.774Z,15.22
2022-10-14T07:23:46.007Z,14.97
2022-10-14T07:26:13.739Z,15.05
2022-10-14T07:28:42.347Z,15.80
2022-10-14T07:31:11.930Z,16.05
2022-10-14T07:33:40.898Z,16.05
2022-10-14T07:36:11.577Z,15.83
2022-10-14T07:38:40.584Z,16.23
2022-10-14T07:41:17.460Z,15.95
2022-10-14T07:43:46.629Z,15.85
2022-10-14T07:46:18.615Z,16.02
2022-10-14T07:48:57.170Z,15.86
2022-10-14T07:51:26.123Z,15.56
2022-10-14T07:54:00.164Z,15.79
2022-10-14T07:56:30.337Z,16.11
2022-10-14T07:58:59.148Z,16.41
2022-10-14T08:01:26.565Z,15.87
2022-10-14T08:03:55.241Z,16.21
2022-10-14T08:06:22.989Z,15.38
2022-10-14T08:08:50.810Z,16.33
2022-10-14T08:11:25.525Z,16.73
2022-10-14T08:13:53.814Z,16.63
2022-10-14T08:16:24.595Z,16.05
2022-10-14T08:18:54.685Z,15.17
2022-10-14T08:21:22.205Z,15.99
2022-10-14T08:23:52.086Z,16.57
2022-10-14T08:26:23.901Z,16.60
2022-10-14T08:28:52.556Z,16.28
2022-10-14T08:31:21.430Z,16.70
2022-10-14T08:33:49.238Z,15.95
2022-10-14T08:36:18.516Z,16.95
2022-10-14T08:39:03.207Z,16.77
2022-10-14T08:42:16.897Z,16.20
2022-10-14T08:44:50.662Z,16.66
2022-10-14T08:47:34.531Z,15.50
2022-10-14T08:50:05.927Z,16.91
2022-10-14T08:52:53.928Z,17.20
2022-10-14T08:55:37.443Z,17.31
2022-10-14T09:01:02.729Z,17.45
2022-10-14T09:03:34.761Z,16.96
2022-10-14T09:06:06.522Z,17.15
2022-10-14T09:08:44.945Z,17.31
2022-10-14T09:11:21.818Z,17.87
2022-10-14T09:13:56.422Z,17.31
2022-10-14T09:16:31.907Z,16.64
2022-10-14T09:19:03.451Z,16.75
2022-10-14T09:21:51.642Z,17.79
2022-10-14T09:24:32.052Z,17.89
2022-10-14T09:27:24.251Z,17.43
2022-10-14T09:30:01.526Z,18.14
2022-10-14T09:32:40.255Z,18.25
2022-10-14T09:35:18.031Z,18.10
2022-10-14T09:37:45.464Z,18.12
2022-10-14T09:40:18.803Z,18.32
2022-10-14T09:42:52.040Z,18.09
2022-10-14T09:45:26.273Z,18.08
2022-10-14T09:48:05.187Z,18.07
2022-10-14T09:50:50.179Z,18.14
2022-10-14T09:53:39.753Z,18.02
2022-10-14T09:56:10.292Z,17.51
2022-10-14T09:58:49.625Z,18.46
2022-10-14T10:01:26.147Z,18.25
2022-10-14T10:03:57.044Z,18.42
2022-10-14T10:06:31.711Z,18.37
2022-10-14T10:09:01.841Z,18.34
2022-10-14T10:14:23.198Z,18.88
2022-10-14T10:16:53.253Z,19.06
2022-10-14T10:19:33.136Z,18.70
2022-10-14T10:22:36.159Z,19.18
2022-10-14T10:25:04.700Z,19.26
2022-10-14T10:27:38.648Z,19.43
2022-10-14T10:30:20.297Z,19.58
2022-10-14T10:33:03.593Z,19.75
2022-10-14T10:36:10.872Z,19.84
2022-10-14T10:38:45.501Z,19.93
2022-10-14T10:41:23.008Z,18.80
2022-10-14T10:44:15.171Z,19.75
2022-10-14T10:47:13.731Z,19.88
2022-10-14T10:50:30.280Z,19.73
2022-10-14T10:53:04.176Z,19.39
2022-10-14T10:55:50.014Z,19.67
2022-10-14T10:58:35.557Z,19.82
2022-10-14T11:01:37.773Z,18.38
2022-10-14T11:04:04.338Z,20.09
2022-10-14T11:06:54.573Z,20.34
2022-10-14T11:10:09.955Z,20.51
2022-10-14T11:12:48.566Z,19.60
2022-10-14T11:15:32.052Z,19.56
2022-10-14T11:18:03.970Z,20.29
2022-10-14T11:20:38.203Z,20.27
2022-10-14T11:23:13.983Z,20.73
2022-10-14T11:25:55.469Z,20.80
2022-10-14T11:28:48.862Z,20.99
2022-10-14T11:31:45.957Z,20.38
2022-10-14T11:34:28.460Z,20.98
2022-10-14T11:37:15.481Z,21.19
2022-10-14T11:40:06.213Z,21.13
2022-10-14T11:43:07.085Z,20.88
2022-10-14T11:45:42.588Z,21.00
2022-10-14T11:48:32.221Z,21.11
2022-10-14T11:51:07.476Z,20.89
2022-10-14T11:54:05.894Z,21.09
2022-10-14T11:56:48.081Z,21.03
2022-10-14T11:59:40.153Z,21.30
2022-10-14T12:02:36.076Z,21.23
2022-10-14T12:05:25.915Z,21.63
2022-10-14T12:08:17.205Z,21.73
2022-10-14T12:10:47.915Z,21.55
2022-10-14T12:13:18.256Z,20.85
2022-10-14T12:15:49.958Z,21.73
2022-10-14T12:18:16.594Z,22.11
2022-10-14T12:21:07.493Z,21.74
2022-10-14T12:23:42.716Z,21.98
2022-10-14T12:26:24.338Z,22.08
2022-10-14T12:29:01.507Z,20.58
2022-10-14T12:31:38.288Z,21.07
2022-10-14T12:34:10.729Z,20.96
2022-10-14T12:36:39.290Z,21.08
2022-10-14T12:39:17.750Z,21.47
2022-10-14T12:42:14.106Z,21.67
2022-10-14T12:44:58.697Z,21.26
2022-10-14T12:47:37.830Z,21.76
2022-10-14T12:50:22.712Z,20.88
2022-10-14T12:52:58.148Z,20.72
2022-10-14T12:55:27.287Z,21.12
2022-10-14T12:58:00.710Z,20.77
2022-10-14T13:00:30.236Z,20.19
2022-10-14T13:03:01.493Z,19.72
2022-10-14T13:05:35.874Z,18.08
2022-10-14T13:08:36.002Z,19.47
2022-10-14T13:11:13.623Z,18.88
2022-10-14T13:13:41.795Z,18.89
2022-10-14T13:16:23.696Z,19.09
2022-10-14T13:19:00.554Z,19.08
2022-10-14T13:21:35.478Z,18.37
2022-10-14T13:24:06.740Z,18.09
2022-10-14T13:26:55.352Z,18.65
2022-10-14T13:29:39.932Z,18.64
2022-10-14T13:32:18.825Z,18.58
2022-10-14T13:35:26.453Z,18.03
2022-10-14T13:38:02.760Z,18.67
2022-10-14T13:40:36.280Z,18.83
2022-10-14T13:43:22.978Z,18.77
2022-10-14T13:45:57.502Z,18.45
2022-10-14T13:48:31.763Z,18.51
2022-10-14T13:51:32.029Z,18.22
2022-10-14T13:54:11.470Z,18.46
2022-10-14T13:56:38.281Z,18.28
2022-10-14T13:59:43.290Z,18.35
2022-10-14T14:02:20.964Z,18.45
2022-10-14T14:04:59.230Z,18.33
2022-10-14T14:10:23.423Z,18.49
2022-10-14T14:12:51.169Z,17.95
2022-10-14T14:15:23.383Z,18.15
2022-10-14T14:17:50.202Z,17.56
2022-10-14T14:20:21.340Z,17.01
2022-10-14T14:22:48.200Z,16.55
2022-10-14T14:25:33.332Z,16.29
2022-10-14T14:28:02.909Z,15.97
2022-10-14T14:30:37.693Z,15.71
2022-10-14T14:33:12.310Z,15.73
2022-10-14T14:35:41.625Z,15.63
2022-10-14T14:38:24.932Z,15.58
2022-10-14T14:41:01.627Z,15.49
2022-10-14T14:43:35.704Z,15.44
2022-10-14T14:46:05.567Z,14.92
2022-10-14T14:48:34.051Z,15.42
2022-10-14T14:51:01.328Z,15.39
2022-10-14T14:53:29.989Z,15.35
2022-10-14T14:55:56.506Z,15.33
2022-10-14T14:58:29.947Z,15.09
2022-10-14T15:00:57.164Z,14.96
2022-10-14T15:03:27.090Z,14.72
2022-10-14T15:05:59.523Z,15.14
2022-10-14T15:08:29.432Z,14.99
2022-10-14T15:10:57.671Z,15.03
2022-10-14T15:13:47.888Z,14.92
2022-10-14T15:16:44.205Z,14.85
2022-10-14T15:19:20.414Z,14.72
2022-10-14T15:22:07.543Z,14.56
2022-10-14T15:24:34.122Z,14.05
2022-10-14T15:27:21.152Z,14.51
2022-10-14T15:30:28.029Z,14.39
2022-10-14T15:32:57.904Z,14.35
2022-10-14T15:35:25.032Z,13.88
2022-10-14T15:37:52.612Z,13.59
2022-10-14T15:40:32.348Z,14.31
2022-10-14T15:42:59.048Z,14.38
2022-10-14T15:45:26.264Z,14.43
2022-10-14T15:50:29.142Z,14.51
2022-10-14T15:52:56.959Z,14.19
2022-10-14T15:55:26.783Z,14.56
2022-10-14T15:57:53.673Z,14.64
2022-10-14T16:00:22.364Z,14.59
2022-10-14T16:02:53.601Z,14.67
2022-10-14T16:05:21.774Z,13.98
2022-10-14T16:07:49.248Z,14.75
2022-10-14T16:10:20.017Z,14.74
2022-10-14T16:12:46.721Z,14.59
2022-10-14T16:15:22.472Z,14.82
2022-10-14T16:17:52.094Z,14.75
2022-10-14T16:20:19.882Z,13.97
2022-10-14T16:22:47.036Z,14.36
2022-10-14T16:25:43.553Z,14.67
2022-10-14T16:28:11.866Z,14.78
2022-10-14T16:30:41.402Z,14.80
2022-10-14T16:33:08.051Z,14.77
2022-10-14T16:35:34.674Z,14.35
2022-10-14T16:38:01.265Z,14.65
2022-10-14T16:40:27.926Z,14.80
2022-10-14T16:42:54.597Z,14.74
2022-10-14T16:45:21.195Z,14.77
2022-10-14T16:47:47.976Z,14.44
2022-10-14T16:50:14.609Z,14.56
2022-10-14T16:53:05.936Z,14.74
2022-10-14T16:55:33.396Z,14.71
2022-10-14T16:58:00.024Z,14.68
2022-10-14T17:00:42.611Z,13.87
2022-10-14T17:03:10.842Z,14.34
2022-10-14T17:05:37.503Z,14.68
2022-10-14T17:08:04.165Z,14.40
2022-10-14T17:10:30.730Z,14.68
2022-10-14T17:12:57.544Z,14.61
2022-10-14T17:15:24.919Z,14.47
2022-10-14T17:17:53.532Z,14.35
2022-10-14T17:20:21.222Z,14.28
2022-10-14T17:22:49.778Z,14.25
2022-10-14T17:25:17.849Z,14.17
2022-10-14T17:27:45.375Z,14.09
2022-10-14T17:30:12.618Z,13.88
2022-10-14T17:32:39.233Z,14.03
2022-10-14T17:35:07.544Z,13.81
2022-10-14T17:37:35.725Z,13.65
2022-10-14T17:40:03.733Z,13.07
2022-10-14T17:42:31.105Z,13.73
2022-10-14T17:44:57.725Z,12.94
2022-10-14T17:47:24.547Z,13.75
2022-10-14T17:49:51.319Z,13.81
2022-10-14T17:52:17.962Z,13.38
2022-10-14T17:54:46.299Z,13.24
2022-10-14T17:57:14.040Z,13.87
2022-10-14T17:59:40.628Z,13.75
2022-10-14T18:02:08.267Z,13.77
2022-10-14T18:04:35.330Z,13.31
2022-10-14T18:07:01.975Z,13.73
2022-10-14T18:09:28.734Z,13.70
2022-10-14T18:12:08.236Z,13.69
2022-10-14T18:14:36.035Z,13.48
2022-10-14T18:17:02.647Z,13.35
2022-10-14T18:19:29.395Z,13.60
2022-10-14T18:21:56.063Z,13.66
2022-10-14T18:24:23.375Z,13.56
2022-10-14T18:26:50.854Z,13.69
2022-10-14T18:29:17.524Z,13.70
2022-10-14T18:31:44.209Z,13.43
2022-10-14T18:34:12.924Z,13.74
2022-10-14T18:36:40.077Z,13.48
2022-10-14T18:39:08.747Z,13.79
2022-10-14T18:41:37.308Z,13.51
2022-10-14T18:44:05.656Z,13.84
2022-10-14T18:46:35.581Z,13.55
2022-10-14T18:49:04.502Z,13.89
2022-10-14T18:51:34.872Z,13.58
2022-10-14T18:54:05.297Z,14.00
2022-10-14T18:56:34.236Z,14.01
2022-10-14T18:59:05.287Z,14.03
2022-10-14T19:01:32.933Z,13.70
2022-10-14T19:03:59.657Z,13.97
2022-10-14T19:06:26.918Z,13.99
2022-10-14T19:08:53.724Z,14.00
2022-10-14T19:11:23.434Z,14.07
2022-10-14T19:13:56.091Z,13.52
2022-10-14T19:16:25.660Z,14.06
2022-10-14T19:18:54.413Z,14.05
2022-10-14T19:21:22.830Z,13.97
2022-10-14T19:23:50.272Z,13.87
2022-10-14T19:26:22.146Z,14.05
2022-10-14T19:28:49.914Z,13.59
2022-10-14T19:31:19.558Z,13.91
2022-10-14T19:33:47.321Z,13.81
2022-10-14T19:36:17.104Z,12.96
2022-10-14T19:38:54.875Z,13.67
2022-10-14T19:41:21.669Z,13.66
2022-10-14T19:43:48.261Z,13.54
2022-10-14T19:46:14.891Z,13.54
2022-10-14T19:48:42.086Z,13.46
2022-10-14T19:51:10.231Z,13.46
2022-10-14T19:53:39.890Z,13.55
2022-10-14T19:56:09.305Z,13.20
2022-10-14T19:58:38.611Z,13.41
2022-10-14T20:01:15.041Z,13.37
2022-10-14T20:03:42.467Z,13.38
2022-10-14T20:06:10.655Z,13.39
2022-10-14T20:08:37.710Z,13.05
2022-10-14T20:11:09.519Z,13.25
2022-10-14T20:13:37.665Z,13.24
2022-10-14T20:16:06.010Z,13.16
2022-10-14T20:18:33.289Z,12.81
2022-10-14T20:21:01.681Z,13.10
2022-10-14T20:23:28.348Z,13.06
2022-10-14T20:26:05.928Z,13.11
2022-10-14T20:28:35.800Z,13.00
2022-10-14T20:31:03.518Z,12.95
2022-10-14T20:33:33.779Z,13.01
2022-10-14T20:36:06.845Z,12.56
2022-10-14T20:38:34.161Z,12.99
2022-10-14T20:41:21.867Z,12.93
2022-10-14T20:43:48.893Z,12.81
2022-10-14T20:46:16.366Z,12.16
2022-10-14T20:48:43.718Z,12.75
2022-10-14T20:51:16.217Z,12.77
2022-10-14T20:53:42.801Z,12.72
2022-10-14T20:56:11.970Z,12.70
2022-10-14T20:58:39.111Z,12.10
2022-10-14T21:01:09.500Z,12.72
2022-10-14T21:03:36.863Z,11.93
2022-10-14T21:06:12.811Z,12.36
2022-10-14T21:08:39.869Z,12.65
2022-10-14T21:11:13.725Z,12.58
2022-10-14T21:13:44.153Z,12.55
2022-10-14T21:16:16.598Z,12.52
2022-10-14T21:18:52.408Z,12.51
2022-10-14T21:21:23.323Z,12.35
2022-10-14T21:23:50.343Z,12.47
2022-10-14T21:26:17.219Z,12.57
2022-10-14T21:28:44.089Z,12.61
2022-10-14T21:31:16.107Z,12.55
2022-10-14T21:33:45.558Z,12.55
2022-10-14T21:36:13.884Z,12.59
2022-10-14T21:38:40.836Z,12.63
2022-10-14T21:41:08.240Z,12.35
2022-10-14T21:43:37.524Z,12.67
2022-10-14T21:46:13.371Z,12.76
2022-10-14T21:48:41.581Z,12.78
2022-10-14T21:51:16.645Z,12.34
2022-10-14T21:53:45.128Z,12.79
2022-10-14T21:56:14.200Z,12.76
2022-10-14T21:58:41.451Z,12.83
2022-10-14T22:01:13.487Z,12.36
2022-10-14T22:03:40.809Z,12.79
2022-10-14T22:06:10.554Z,12.84
2022-10-14T22:08:58.458Z,12.87
2022-10-14T22:11:34.737Z,12.40
2022-10-14T22:14:02.849Z,12.85
2022-10-14T22:16:30.167Z,12.48
2022-10-14T22:18:59.821Z,12.72
2022-10-14T22:21:28.808Z,12.05
2022-10-14T22:23:55.568Z,12.63
2022-10-14T22:26:24.492Z,12.65
2022-10-14T22:28:58.912Z,12.58
2022-10-14T22:31:26.365Z,12.17
2022-10-14T22:33:52.955Z,12.45
2022-10-14T22:36:23.925Z,12.43
2022-10-14T22:38:52.980Z,12.44
2022-10-14T22:41:19.679Z,11.68
2022-10-14T22:43:51.734Z,12.39
2022-10-14T22:46:20.447Z,12.40
2022-10-14T22:48:48.157Z,12.44
2022-10-14T22:51:17.946Z,12.25
2022-10-14T22:53:45.957Z,12.34
2022-10-14T22:56:16.160Z,12.38
2022-10-14T22:58:42.786Z,12.51
2022-10-14T23:01:17.206Z,12.53
2022-10-14T23:03:44.116Z,12.59
2022-10-14T23:06:12.859Z,12.53
2022-10-14T23:08:40.090Z,12.44
2022-10-14T23:11:07.153Z,12.43
2022-10-14T23:13:34.551Z,12.51
2022-10-14T23:16:03.896Z,12.46
2022-10-14T23:18:33.747Z,12.41
2022-10-14T23:21:11.004Z,12.37
2022-10-14T23:23:37.738Z,12.43
2022-10-14T23:26:04.498Z,12.18
2022-10-14T23:28:31.262Z,11.71
2022-10-14T23:30:58.232Z,12.25
2022-10-14T23:33:24.830Z,11.68
2022-10-14T23:35:51.444Z,11.85
2022-10-14T23:38:19.356Z,11.53
2022-10-14T23:40:46.071Z,12.23
2022-10-14T23:43:12.748Z,12.32
2022-10-14T23:45:39.435Z,11.96
2022-10-14T23:48:06.882Z,11.78
2022-10-14T23:50:33.441Z,12.24
2022-10-14T23:53:00.046Z,11.75
2022-10-14T23:55:26.619Z,12.14
2022-10-14T23:57:53.181Z,11.88
